Butte City, California
Current Conditions -  °F | °C
As of 6:53 AM on Monday 24 Nov 2014 (Local Time) from KOVE Reporting Station
Clear Clear  
Wind Chill: 40°   Ceiling: Unl
Heat Index: 40°   Visibility: 10mi
Dew Point: 35°   Wind: 0mph
Humidity: 83%   Direction: NA
Pressure: 30.38"   Gusts: NA
Location:  39.46°N, 121.99°W
Report Text: KOVE 241453Z AUTO 00000KT 10SM CLR 04/02 A3038 RMK AO2 SLP291 T00440017 52007
Loading
Personal Weather Stations






























Interactive Weather Map New forecast layout! Learn more

10-Day Weather Forecast

Advertisements
Track Severe Weather on mobile